Time;durP1;ratioP1;P1;durP2;ratioP2;P2;SDS_P1;SDS_P2;PMS_P1;PMS_P2;Temp;Humidity;BMP_temperature;BMP_pressure;BME280_temperature;BME280_humidity;BME280_pressure;Samples;Min_cycle;Max_cycle;Signal;HPM_P1;HPM_P2
2022/01/02 00:01:50;;;;;;;1.05;1.05;;;6.60;99.90;;;;;;5075197;28;20598;-69
2022/01/02 00:04:21;;;;;;;0.30;0.30;;;6.60;99.90;;;;;;5076216;28;20676;-69
2022/01/02 00:06:50;;;;;;;0.30;0.30;;;6.60;99.90;;;;;;5076238;28;20177;-68
2022/01/02 00:09:35;;;;;;;0.40;0.40;;;6.50;99.90;;;;;;5076059;28;20169;-68
2022/01/02 00:12:06;;;;;;;0.30;0.30;;;6.50;99.90;;;;;;5076383;28;20180;-68
2022/01/02 00:14:36;;;;;;;0.30;0.30;;;6.40;99.90;;;;;;5076231;28;20679;-69
2022/01/02 00:17:04;;;;;;;0.40;0.40;;;6.40;99.90;;;;;;5076021;28;20162;-68
2022/01/02 00:19:31;;;;;;;0.30;0.30;;;6.30;99.90;;;;;;5075850;28;20166;-69
2022/01/02 00:22:00;;;;;;;0.30;0.30;;;6.30;99.90;;;;;;5076580;28;20166;-69
2022/01/02 00:24:28;;;;;;;0.32;0.32;;;6.30;99.90;;;;;;5075962;28;20185;-69
2022/01/02 00:26:55;;;;;;;0.40;0.40;;;6.40;99.90;;;;;;5075846;28;20252;-69
2022/01/02 00:29:21;;;;;;;0.35;0.35;;;6.30;99.90;;;;;;5075620;28;20173;-69
2022/01/02 00:31:47;;;;;;;0.30;0.30;;;6.40;99.90;;;;;;5076024;28;20667;-68
2022/01/02 00:34:13;;;;;;;0.30;0.30;;;6.40;99.90;;;;;;5075655;28;20284;-68
2022/01/02 00:36:39;;;;;;;0.30;0.30;;;6.30;99.90;;;;;;5075707;28;20602;-68
2022/01/02 00:39:06;;;;;;;0.30;0.30;;;6.40;99.90;;;;;;5075470;28;20174;-68
2022/01/02 00:41:47;;;;;;;0.30;0.30;;;6.30;99.90;;;;;;5075761;28;20194;-69
2022/01/02 00:44:28;;;;;;;0.30;0.30;;;6.30;99.90;;;;;;5075749;28;20193;-68
2022/01/02 00:47:17;;;;;;;0.40;0.40;;;6.30;99.90;;;;;;5074310;28;20169;-68
2022/01/02 00:49:53;;;;;;;0.40;0.40;;;6.30;99.90;;;;;;5075351;28;20200;-69
2022/01/02 00:52:20;;;;;;;0.40;0.40;;;6.30;99.90;;;;;;5075576;28;20218;-69
2022/01/02 00:54:46;;;;;;;0.30;0.30;;;6.20;99.90;;;;;;5075425;28;20601;-69
2022/01/02 00:57:19;;;;;;;0.30;0.30;;;6.20;99.90;;;;;;5075733;28;20728;-68
2022/01/02 01:00:05;;;;;;;0.40;0.40;;;6.20;99.90;;;;;;5075067;28;20582;-69
2022/01/02 01:02:45;;;;;;;0.30;0.30;;;6.20;99.90;;;;;;5075421;28;20165;-69
2022/01/02 01:05:14;;;;;;;0.40;0.40;;;6.10;99.90;;;;;;5075241;28;20193;-68
2022/01/02 01:07:42;;;;;;;0.40;0.40;;;6.10;99.90;;;;;;5075110;28;20169;-69
2022/01/02 01:10:11;;;;;;;0.32;0.32;;;6.10;99.90;;;;;;5074940;28;20252;-69
2022/01/02 01:12:36;;;;;;;0.30;0.30;;;6.10;99.90;;;;;;5075107;28;20211;-69
2022/01/02 01:15:06;;;;;;;0.33;0.33;;;6.10;99.90;;;;;;5075234;28;20206;-69
2022/01/02 01:17:32;;;;;;;0.30;0.30;;;6.00;99.90;;;;;;5075049;28;20404;-69
2022/01/02 01:19:58;;;;;;;0.30;0.30;;;6.00;99.90;;;;;;5074730;28;20241;-68
2022/01/02 01:22:24;;;;;;;0.32;0.32;;;6.00;99.90;;;;;;5074852;28;20198;-69
2022/01/02 01:24:50;;;;;;;0.30;0.30;;;6.00;99.90;;;;;;5074810;28;20268;-68
2022/01/02 01:27:16;;;;;;;0.30;0.30;;;6.00;99.90;;;;;;5074745;28;20409;-69
2022/01/02 01:29:42;;;;;;;0.30;0.30;;;6.00;99.90;;;;;;5074319;28;20227;-68
2022/01/02 01:32:08;;;;;;;0.30;0.30;;;6.00;99.90;;;;;;5074545;28;20647;-69
2022/01/02 01:34:35;;;;;;;0.30;0.30;;;6.00;99.90;;;;;;5074362;28;20296;-68
2022/01/02 01:37:01;;;;;;;0.30;0.30;;;6.00;99.90;;;;;;5074509;28;20597;-69
2022/01/02 01:39:27;;;;;;;0.33;0.33;;;5.90;99.90;;;;;;5074455;28;20252;-68
2022/01/02 01:41:54;;;;;;;0.30;0.30;;;5.80;99.90;;;;;;5074457;28;20411;-68
2022/01/02 01:44:38;;;;;;;0.40;0.40;;;5.70;99.90;;;;;;5073144;28;20671;-68
2022/01/02 01:47:04;;;;;;;0.30;0.30;;;5.80;99.90;;;;;;5074533;28;20575;-68
2022/01/02 01:49:30;;;;;;;0.30;0.30;;;5.90;99.90;;;;;;5074272;28;20169;-68
2022/01/02 01:51:56;;;;;;;0.40;0.40;;;5.90;99.90;;;;;;5074112;28;20917;-69
2022/01/02 01:54:22;;;;;;;0.30;0.30;;;5.90;99.90;;;;;;5074115;28;20220;-68
2022/01/02 01:56:51;;;;;;;0.30;0.30;;;5.90;99.90;;;;;;5074004;28;20644;-68
2022/01/02 01:59:18;;;;;;;0.30;0.30;;;5.90;99.90;;;;;;5073856;28;20181;-69
2022/01/02 02:01:45;;;;;;;0.30;0.30;;;5.90;99.90;;;;;;5074041;28;20170;-69
2022/01/02 02:04:10;;;;;;;0.30;0.30;;;5.90;99.90;;;;;;5073967;28;20200;-68
2022/01/02 02:06:37;;;;;;;0.30;0.30;;;5.90;99.90;;;;;;5073501;28;20166;-69
2022/01/02 02:09:05;;;;;;;0.40;0.40;;;5.80;99.90;;;;;;5073825;28;20180;-69
2022/01/02 02:11:31;;;;;;;0.40;0.40;;;5.90;99.90;;;;;;5073986;28;20570;-68
2022/01/02 02:13:57;;;;;;;0.30;0.30;;;5.90;99.90;;;;;;5073658;28;20197;-68
2022/01/02 02:16:23;;;;;;;0.40;0.40;;;5.90;99.90;;;;;;5073823;28;20266;-69
2022/01/02 02:18:49;;;;;;;0.30;0.30;;;6.00;99.90;;;;;;5073679;28;20469;-68
2022/01/02 02:21:15;;;;;;;0.30;0.30;;;6.00;99.90;;;;;;5073764;28;20219;-69
2022/01/02 02:23:44;;;;;;;0.32;0.32;;;6.00;99.90;;;;;;5073837;28;20252;-69
2022/01/02 02:26:10;;;;;;;0.30;0.30;;;6.00;99.90;;;;;;5073730;28;20193;-68
2022/01/02 02:28:35;;;;;;;0.30;0.30;;;5.90;99.90;;;;;;5073463;28;20170;-69
2022/01/02 02:31:01;;;;;;;0.40;0.40;;;5.90;99.90;;;;;;5073653;28;20562;-69
2022/01/02 02:33:27;;;;;;;0.30;0.30;;;5.90;99.90;;;;;;5073676;28;20640;-68
2022/01/02 02:35:54;;;;;;;0.30;0.30;;;5.90;99.90;;;;;;5073413;28;20510;-69
2022/01/02 02:38:20;;;;;;;0.35;0.35;;;5.80;99.90;;;;;;5073437;28;20165;-69
2022/01/02 02:40:46;;;;;;;0.30;0.30;;;5.80;99.90;;;;;;5073360;28;20181;-68
2022/01/02 02:49:02;;;;;;;0.30;0.30;;;5.80;99.90;;;;;;5073383;28;20172;-69
2022/01/02 02:51:46;;;;;;;0.30;0.30;;;5.80;99.90;;;;;;5073601;28;20256;-69
2022/01/02 02:54:27;;;;;;;0.40;0.40;;;5.90;99.90;;;;;;5073411;28;20245;-69
2022/01/02 02:56:55;;;;;;;0.40;0.40;;;5.90;99.90;;;;;;5073336;28;20164;-68
2022/01/02 02:59:22;;;;;;;0.38;0.38;;;5.80;99.90;;;;;;5071692;28;20705;-68
2022/01/02 03:01:48;;;;;;;0.40;0.40;;;5.70;99.90;;;;;;5073241;28;20193;-68
2022/01/02 03:04:13;;;;;;;0.30;0.30;;;5.80;99.90;;;;;;5073222;28;20229;-69
2022/01/02 03:06:39;;;;;;;0.40;0.40;;;5.80;99.90;;;;;;5073209;28;20184;-69
2022/01/02 03:09:08;;;;;;;0.30;0.30;;;5.80;99.90;;;;;;5072992;28;20169;-68
2022/01/02 03:11:36;;;;;;;0.40;0.40;;;5.90;99.90;;;;;;5073399;28;20214;-69
2022/01/02 03:14:03;;;;;;;0.30;0.30;;;5.80;99.90;;;;;;5073165;28;20246;-69
2022/01/02 03:16:29;;;;;;;0.30;0.30;;;5.80;99.90;;;;;;5073141;28;20166;-68
2022/01/02 03:18:54;;;;;;;0.40;0.40;;;5.80;99.90;;;;;;5073446;28;20184;-69
2022/01/02 03:21:20;;;;;;;0.30;0.30;;;5.80;99.90;;;;;;5077070;28;20196;-69
2022/01/02 03:23:46;;;;;;;0.30;0.30;;;5.80;99.90;;;;;;5077154;28;20734;-69
2022/01/02 03:26:12;;;;;;;0.40;0.40;;;5.80;99.90;;;;;;5076917;28;20434;-69
2022/01/02 03:28:37;;;;;;;0.40;0.40;;;5.80;99.90;;;;;;5076946;28;20176;-69
2022/01/02 03:31:03;;;;;;;0.30;0.30;;;5.90;99.90;;;;;;5076908;28;20212;-68
2022/01/02 03:33:29;;;;;;;0.30;0.30;;;5.90;99.90;;;;;;5076852;28;20169;-69
2022/01/02 03:35:55;;;;;;;0.30;0.30;;;5.80;99.90;;;;;;5076710;28;20194;-69
2022/01/02 03:38:20;;;;;;;0.30;0.30;;;5.80;99.90;;;;;;5076705;28;20166;-68
2022/01/02 03:40:46;;;;;;;0.30;0.30;;;5.80;99.90;;;;;;5076878;28;20179;-69
2022/01/02 03:43:12;;;;;;;0.40;0.40;;;5.80;99.90;;;;;;5076751;28;20683;-68
2022/01/02 03:45:38;;;;;;;0.30;0.30;;;5.80;99.90;;;;;;5076620;28;20186;-69
2022/01/02 03:48:03;;;;;;;0.30;0.30;;;5.80;99.90;;;;;;5076451;28;20178;-69
2022/01/02 03:50:29;;;;;;;0.40;0.40;;;5.80;99.90;;;;;;5076631;28;20852;-68
2022/01/02 03:52:55;;;;;;;0.40;0.40;;;5.80;99.90;;;;;;5076597;28;20226;-68
2022/01/02 03:55:22;;;;;;;0.30;0.30;;;5.70;99.90;;;;;;5076336;28;20201;-68
2022/01/02 03:57:48;;;;;;;0.30;0.30;;;5.70;99.90;;;;;;5076597;28;20669;-68
2022/01/02 04:00:15;;;;;;;0.30;0.30;;;5.50;99.90;;;;;;5076115;28;20216;-68
2022/01/02 04:02:41;;;;;;;0.30;0.30;;;5.40;99.90;;;;;;5076328;28;20408;-69
2022/01/02 04:05:09;;;;;;;0.30;0.30;;;5.40;99.90;;;;;;5076262;28;20279;-68
2022/01/02 04:07:35;;;;;;;0.30;0.30;;;5.40;99.90;;;;;;5076199;28;20181;-68
2022/01/02 04:10:05;;;;;;;0.30;0.30;;;5.40;99.90;;;;;;5076191;28;20639;-68
2022/01/02 04:12:32;;;;;;;0.30;0.30;;;5.50;99.90;;;;;;5076360;28;20185;-68
2022/01/02 04:14:58;;;;;;;0.30;0.30;;;5.60;99.90;;;;;;5076157;28;20240;-68
2022/01/02 04:17:24;;;;;;;0.30;0.30;;;5.60;99.90;;;;;;5076313;28;20177;-68
2022/01/02 04:19:50;;;;;;;0.30;0.30;;;5.60;99.90;;;;;;5076031;28;20169;-68
2022/01/02 04:22:17;;;;;;;0.32;0.32;;;5.60;99.90;;;;;;5076091;28;20162;-68
2022/01/02 04:24:42;;;;;;;0.30;0.30;;;5.60;99.90;;;;;;5076037;28;20209;-69
2022/01/02 04:27:08;;;;;;;0.40;0.40;;;5.50;99.90;;;;;;5075875;28;20545;-68
2022/01/02 04:29:34;;;;;;;0.30;0.30;;;5.50;99.90;;;;;;5075318;28;20165;-69
2022/01/02 04:31:59;;;;;;;0.40;0.40;;;5.50;99.90;;;;;;5075880;28;20589;-69
2022/01/02 04:34:25;;;;;;;0.30;0.30;;;5.50;99.90;;;;;;5075705;28;20690;-68
2022/01/02 04:36:51;;;;;;;0.37;0.37;;;5.50;99.90;;;;;;5075683;28;20219;-68
2022/01/02 04:39:17;;;;;;;0.30;0.30;;;5.50;99.90;;;;;;5075434;28;20231;-69
2022/01/02 04:41:42;;;;;;;0.40;0.40;;;5.50;99.90;;;;;;5075613;28;20262;-68
2022/01/02 04:44:08;;;;;;;0.30;0.30;;;5.50;99.90;;;;;;5075685;28;20213;-68
2022/01/02 04:46:34;;;;;;;0.30;0.30;;;5.60;99.90;;;;;;5075490;28;20271;-69
2022/01/02 04:48:59;;;;;;;0.30;0.30;;;5.50;99.90;;;;;;5075283;28;20207;-68
2022/01/02 04:51:25;;;;;;;0.30;0.30;;;5.40;99.90;;;;;;5075563;28;20655;-68
2022/01/02 04:53:51;;;;;;;0.40;0.40;;;5.50;99.90;;;;;;5075368;28;20200;-69
2022/01/02 04:56:17;;;;;;;0.30;0.30;;;5.40;99.90;;;;;;5075333;28;20658;-69
2022/01/02 04:58:43;;;;;;;0.30;0.30;;;5.30;99.90;;;;;;5074952;28;20189;-69
2022/01/02 05:01:11;;;;;;;0.30;0.30;;;5.20;99.90;;;;;;5075486;28;20412;-68
2022/01/02 05:03:44;;;;;;;0.40;0.40;;;5.30;99.90;;;;;;5075266;28;20407;-68
2022/01/02 05:06:10;;;;;;;0.30;0.30;;;5.30;99.90;;;;;;5075091;28;20219;-68
2022/01/02 05:08:37;;;;;;;0.40;0.40;;;5.20;99.90;;;;;;5075091;28;20560;-68
2022/01/02 05:11:03;;;;;;;0.40;0.40;;;5.20;99.90;;;;;;5075051;28;20535;-68
2022/01/02 05:13:28;;;;;;;0.30;0.30;;;5.30;99.90;;;;;;5074955;28;20587;-69
2022/01/02 05:15:54;;;;;;;0.40;0.40;;;5.30;99.90;;;;;;5075010;28;20224;-69
2022/01/02 05:18:20;;;;;;;0.30;0.30;;;5.30;99.90;;;;;;5074890;28;20172;-69
2022/01/02 05:20:46;;;;;;;0.30;0.30;;;5.40;99.90;;;;;;5075053;28;20196;-69
2022/01/02 05:23:16;;;;;;;0.32;0.32;;;5.40;99.90;;;;;;5074972;28;20391;-68
2022/01/02 05:25:42;;;;;;;0.30;0.30;;;5.30;99.90;;;;;;5074666;28;20585;-69
2022/01/02 05:28:09;;;;;;;0.30;0.30;;;5.30;99.90;;;;;;5074565;28;20200;-68
2022/01/02 05:30:36;;;;;;;0.40;0.40;;;5.30;99.90;;;;;;5074726;28;20291;-68
2022/01/02 05:33:02;;;;;;;0.35;0.35;;;5.20;99.90;;;;;;5074693;28;20166;-68
2022/01/02 05:35:28;;;;;;;0.40;0.40;;;5.20;99.90;;;;;;5074579;28;20251;-68
2022/01/02 05:37:53;;;;;;;0.30;0.30;;;5.20;99.90;;;;;;5074300;28;20533;-68
2022/01/02 05:40:19;;;;;;;0.40;0.40;;;5.30;99.90;;;;;;5074338;28;20166;-68
2022/01/02 05:42:45;;;;;;;0.30;0.30;;;5.30;99.90;;;;;;5074051;28;20177;-68
2022/01/02 05:45:11;;;;;;;0.40;0.40;;;5.30;99.90;;;;;;5074375;28;20196;-69
2022/01/02 05:47:38;;;;;;;0.30;0.30;;;5.30;99.90;;;;;;5074336;28;20521;-69
2022/01/02 05:50:05;;;;;;;0.32;0.32;;;5.40;99.90;;;;;;5074247;28;20166;-68
2022/01/02 05:52:31;;;;;;;1.40;1.40;;;5.40;99.90;;;;;;5074909;28;20262;-69
2022/01/02 05:54:57;;;;;;;0.40;0.40;;;5.40;99.90;;;;;;5074041;28;20278;-69
2022/01/02 05:57:23;;;;;;;0.30;0.30;;;5.30;99.90;;;;;;5074078;28;20195;-69
2022/01/02 05:59:49;;;;;;;0.30;0.30;;;5.40;99.90;;;;;;5073961;28;20225;-68
2022/01/02 06:02:15;;;;;;;0.40;0.40;;;5.40;99.90;;;;;;5074118;28;20408;-68
2022/01/02 06:04:40;;;;;;;0.40;0.40;;;5.30;99.90;;;;;;5074034;28;20506;-69
2022/01/02 06:07:06;;;;;;;0.33;0.33;;;5.30;99.90;;;;;;5074428;28;20166;-69
2022/01/02 06:09:32;;;;;;;0.30;0.30;;;5.30;99.90;;;;;;5073913;28;20179;-68
2022/01/02 06:11:58;;;;;;;0.33;0.33;;;5.30;99.90;;;;;;5073975;28;20180;-69
2022/01/02 06:14:23;;;;;;;0.30;0.30;;;5.40;99.90;;;;;;5073744;28;20740;-68
2022/01/02 06:16:49;;;;;;;0.30;0.30;;;5.50;99.90;;;;;;5073891;28;20193;-68
2022/01/02 06:19:15;;;;;;;0.30;0.30;;;5.50;99.90;;;;;;5073618;28;20182;-68
2022/01/02 06:21:40;;;;;;;0.30;0.30;;;5.50;99.90;;;;;;5073668;28;20172;-68
2022/01/02 06:24:06;;;;;;;0.30;0.30;;;5.60;99.90;;;;;;5073667;28;20248;-69
2022/01/02 06:26:31;;;;;;;0.30;0.30;;;5.60;99.90;;;;;;5073689;28;20643;-68
2022/01/02 06:28:57;;;;;;;0.40;0.40;;;5.70;99.90;;;;;;5073469;28;20170;-68
2022/01/02 06:31:23;;;;;;;0.30;0.30;;;5.70;99.90;;;;;;5073850;28;20174;-68
2022/01/02 06:33:48;;;;;;;0.30;0.30;;;5.70;99.90;;;;;;5073705;28;20647;-69
2022/01/02 06:36:14;;;;;;;0.40;0.40;;;5.80;99.90;;;;;;5073702;28;20195;-68
2022/01/02 06:38:39;;;;;;;0.30;0.30;;;5.80;99.90;;;;;;5073385;28;20169;-68
2022/01/02 06:41:05;;;;;;;0.40;0.40;;;5.80;99.90;;;;;;5073586;28;20215;-68
2022/01/02 06:43:32;;;;;;;0.40;0.40;;;5.80;99.90;;;;;;5073597;28;20161;-69
2022/01/02 06:45:58;;;;;;;0.30;0.30;;;5.90;99.90;;;;;;5073374;28;20188;-69
2022/01/02 06:48:24;;;;;;;0.40;0.40;;;6.00;99.90;;;;;;5073450;28;20170;-69
2022/01/02 06:50:49;;;;;;;0.30;0.30;;;6.00;99.90;;;;;;5073399;28;20170;-69
2022/01/02 06:53:15;;;;;;;0.30;0.30;;;6.20;99.90;;;;;;5073304;28;20219;-69
2022/01/02 06:55:40;;;;;;;0.40;0.40;;;6.20;99.90;;;;;;5073227;28;20545;-69
2022/01/02 06:58:06;;;;;;;0.30;0.30;;;6.30;99.90;;;;;;5073153;28;20169;-69
2022/01/02 07:00:32;;;;;;;0.40;0.40;;;6.40;99.90;;;;;;5073527;28;20181;-68
2022/01/02 07:02:58;;;;;;;0.40;0.40;;;6.40;99.90;;;;;;5073533;28;20219;-69
2022/01/02 07:05:24;;;;;;;0.40;0.40;;;6.50;99.90;;;;;;5073262;28;20193;-68
2022/01/02 07:07:51;;;;;;;0.30;0.30;;;6.60;99.90;;;;;;5073429;28;20166;-68
2022/01/02 07:10:17;;;;;;;0.30;0.30;;;6.60;99.90;;;;;;5073844;28;20540;-68
2022/01/02 07:12:43;;;;;;;0.40;0.40;;;6.70;99.90;;;;;;5073329;28;20174;-69
2022/01/02 07:15:10;;;;;;;0.40;0.40;;;6.70;99.90;;;;;;5073057;28;20201;-69
2022/01/02 07:17:36;;;;;;;0.40;0.40;;;6.70;99.90;;;;;;5073174;28;20532;-69
2022/01/02 07:20:05;;;;;;;0.52;0.52;;;6.80;99.90;;;;;;5073032;28;20169;-69
2022/01/02 07:22:30;;;;;;;0.40;0.40;;;6.90;99.90;;;;;;5073162;28;20175;-68
2022/01/02 07:24:56;;;;;;;0.40;0.40;;;7.00;99.90;;;;;;5073087;28;20196;-69
2022/01/02 07:27:21;;;;;;;0.40;0.40;;;7.00;99.90;;;;;;5073073;28;20689;-68
2022/01/02 07:29:48;;;;;;;0.30;0.30;;;7.20;99.90;;;;;;5073068;28;20257;-69
2022/01/02 07:32:17;;;;;;;0.40;0.40;;;7.30;99.90;;;;;;5073154;28;20197;-69
2022/01/02 07:34:43;;;;;;;0.30;0.30;;;7.30;99.90;;;;;;5072862;28;20205;-69
2022/01/02 07:37:10;;;;;;;0.30;0.30;;;7.40;99.70;;;;;;5073012;28;20176;-68
2022/01/02 07:39:36;;;;;;;0.32;0.32;;;7.40;99.50;;;;;;5072929;28;20184;-68
2022/01/02 07:42:02;;;;;;;0.30;0.30;;;7.50;99.30;;;;;;5073048;28;20639;-68
2022/01/02 07:44:27;;;;;;;0.30;0.30;;;7.50;99.00;;;;;;5073061;28;20197;-69
2022/01/02 07:46:53;;;;;;;0.37;0.37;;;7.50;99.00;;;;;;5072826;28;20416;-69
2022/01/02 07:49:18;;;;;;;0.30;0.30;;;7.50;98.80;;;;;;5072795;28;20198;-69
2022/01/02 07:51:44;;;;;;;0.30;0.30;;;7.60;98.90;;;;;;5072873;28;20174;-69
2022/01/02 07:54:12;;;;;;;0.40;0.40;;;7.70;98.90;;;;;;5072734;28;20201;-68
2022/01/02 07:56:38;;;;;;;0.40;0.40;;;7.70;98.60;;;;;;5072866;28;20161;-69
2022/01/02 07:59:04;;;;;;;0.30;0.30;;;7.80;98.70;;;;;;5072477;28;20191;-69
2022/01/02 08:01:30;;;;;;;0.40;0.40;;;7.90;98.60;;;;;;5072959;28;20180;-69
2022/01/02 08:03:56;;;;;;;0.30;0.30;;;8.00;98.60;;;;;;5072832;28;20686;-68
2022/01/02 08:06:21;;;;;;;0.30;0.30;;;8.00;98.80;;;;;;5076048;28;20425;-69
2022/01/02 08:08:47;;;;;;;0.30;0.30;;;8.10;98.90;;;;;;5075985;28;20581;-68
2022/01/02 08:11:15;;;;;;;0.30;0.30;;;8.30;98.80;;;;;;5076291;28;20176;-69
2022/01/02 08:13:42;;;;;;;0.40;0.40;;;8.40;98.60;;;;;;5076273;28;20173;-69
2022/01/02 08:16:08;;;;;;;0.30;0.30;;;8.60;98.70;;;;;;5076225;28;20696;-69
2022/01/02 08:18:33;;;;;;;0.30;0.30;;;8.70;98.40;;;;;;5075892;28;20200;-68
2022/01/02 08:20:59;;;;;;;0.30;0.30;;;9.00;98.90;;;;;;5076083;28;20176;-69
2022/01/02 08:23:25;;;;;;;0.30;0.30;;;9.30;99.00;;;;;;5076210;28;20172;-69
2022/01/02 08:25:50;;;;;;;0.30;0.30;;;9.60;98.80;;;;;;5075960;28;20696;-69
2022/01/02 08:28:16;;;;;;;0.30;0.30;;;9.80;98.40;;;;;;5075860;28;20181;-68
2022/01/02 08:30:43;;;;;;;0.30;0.30;;;9.90;97.40;;;;;;5075955;28;20173;-69
2022/01/02 08:33:10;;;;;;;0.30;0.30;;;9.80;96.80;;;;;;5076033;28;20512;-69
2022/01/02 08:35:36;;;;;;;0.35;0.35;;;9.80;96.00;;;;;;5075638;28;20294;-69
2022/01/02 08:38:03;;;;;;;0.30;0.30;;;9.70;96.10;;;;;;5075655;28;20183;-69
2022/01/02 08:40:28;;;;;;;0.30;0.30;;;9.60;95.70;;;;;;5075806;28;20208;-69
2022/01/02 08:42:54;;;;;;;0.40;0.40;;;9.40;96.40;;;;;;5075875;28;20193;-69
2022/01/02 08:45:20;;;;;;;0.30;0.30;;;9.30;96.60;;;;;;5075716;28;20519;-68
2022/01/02 08:47:46;;;;;;;0.30;0.30;;;9.20;96.70;;;;;;5075554;28;20183;-69
2022/01/02 08:50:11;;;;;;;0.30;0.30;;;9.30;96.90;;;;;;5075402;28;20415;-69
2022/01/02 08:52:37;;;;;;;0.30;0.30;;;9.30;97.20;;;;;;5075672;28;20256;-69
2022/01/02 08:55:04;;;;;;;0.50;0.50;;;9.30;97.40;;;;;;5075407;28;20687;-68
2022/01/02 08:57:29;;;;;;;0.30;0.30;;;9.20;97.30;;;;;;5075363;28;20219;-69
2022/01/02 08:59:55;;;;;;;0.30;0.30;;;9.30;97.30;;;;;;5074942;28;20196;-69
2022/01/02 09:02:21;;;;;;;0.40;0.40;;;9.40;96.80;;;;;;5075425;28;20256;-69
2022/01/02 09:04:46;;;;;;;0.30;0.30;;;9.50;97.30;;;;;;5075227;28;20189;-69
2022/01/02 09:07:12;;;;;;;0.30;0.30;;;9.60;97.50;;;;;;5073902;28;20203;-68
2022/01/02 09:09:37;;;;;;;0.30;0.30;;;9.90;97.50;;;;;;5075053;28;20173;-69
2022/01/02 09:12:03;;;;;;;0.30;0.30;;;10.30;97.70;;;;;;5075221;28;20181;-68
2022/01/02 09:14:29;;;;;;;0.30;0.30;;;11.00;98.80;;;;;;5075092;28;20205;-69
2022/01/02 09:16:55;;;;;;;0.30;0.30;;;12.60;99.30;;;;;;5073842;28;20399;-69
2022/01/02 09:19:21;;;;;;;0.30;0.30;;;14.90;94.40;;;;;;5074789;28;20169;-67
2022/01/02 09:21:46;;;;;;;0.30;0.30;;;17.00;83.00;;;;;;5075084;28;20227;-67
2022/01/02 09:24:12;;;;;;;0.30;0.30;;;18.90;73.30;;;;;;5074865;28;20442;-67
2022/01/02 09:26:37;;;;;;;0.30;0.30;;;20.60;65.60;;;;;;5074754;28;20241;-67
2022/01/02 09:29:04;;;;;;;0.30;0.30;;;21.20;59.80;;;;;;5074556;28;20175;-67
2022/01/02 09:31:29;;;;;;;0.30;0.30;;;21.30;59.20;;;;;;5074654;28;20259;-68
2022/01/02 09:33:55;;;;;;;0.40;0.40;;;21.90;57.90;;;;;;5074467;28;21030;-67
2022/01/02 09:36:20;;;;;;;0.30;0.30;;;22.10;56.80;;;;;;5074557;28;20176;-68
2022/01/02 09:38:47;;;;;;;0.50;0.50;;;22.80;53.20;;;;;;5073103;28;20177;-67
2022/01/02 09:41:13;;;;;;;0.30;0.30;;;23.90;50.60;;;;;;5074660;28;20586;-68
2022/01/02 09:43:39;;;;;;;0.30;0.30;;;24.70;45.20;;;;;;5074522;28;20408;-67
2022/01/02 09:46:04;;;;;;;0.30;0.30;;;25.30;45.80;;;;;;5074281;28;20253;-68
2022/01/02 09:48:31;;;;;;;0.30;0.30;;;24.90;39.50;;;;;;5074120;28;20251;-68
2022/01/02 09:50:57;;;;;;;0.30;0.30;;;24.30;38.10;;;;;;5074357;28;20693;-68
2022/01/02 09:53:23;;;;;;;0.30;0.30;;;23.90;35.90;;;;;;5074287;28;20406;-68
2022/01/02 09:55:51;;;;;;;0.30;0.30;;;23.60;38.50;;;;;;5073757;28;20921;-68
2022/01/02 09:58:17;;;;;;;0.40;0.40;;;23.80;38.50;;;;;;5074060;28;20173;-68
2022/01/02 10:00:45;;;;;;;0.40;0.40;;;23.60;35.60;;;;;;5073989;28;20472;-68
2022/01/02 10:03:11;;;;;;;0.30;0.30;;;23.10;34.50;;;;;;5073972;28;20173;-68
2022/01/02 10:05:59;;;;;;;0.30;0.30;;;22.30;40.00;;;;;;5073791;28;20436;-68
2022/01/02 10:08:35;;;;;;;0.30;0.30;;;21.20;41.00;;;;;;5073800;28;20498;-68
2022/01/02 10:11:06;;;;;;;0.40;0.40;;;20.50;43.00;;;;;;5073991;28;20423;-67
2022/01/02 10:13:56;;;;;;;0.30;0.30;;;19.70;44.90;;;;;;5073825;28;20409;-67
2022/01/02 10:16:31;;;;;;;0.30;0.30;;;18.80;38.10;;;;;;5073826;28;20393;-67
2022/01/02 10:18:58;;;;;;;0.37;0.37;;;18.00;40.40;;;;;;5072090;28;20789;-67
2022/01/02 10:21:35;;;;;;;0.30;0.30;;;17.50;43.60;;;;;;5073637;28;20400;-67
2022/01/02 10:24:21;;;;;;;0.30;0.30;;;17.00;45.00;;;;;;5074088;28;20748;-67
2022/01/02 10:27:09;;;;;;;0.30;0.30;;;16.60;42.30;;;;;;5073426;28;20434;-67
2022/01/02 10:29:55;;;;;;;0.30;0.30;;;16.10;43.80;;;;;;5073451;28;20423;-67
2022/01/02 10:32:30;;;;;;;0.30;0.30;;;15.60;44.30;;;;;;5073537;28;20403;-67
2022/01/02 10:35:09;;;;;;;0.30;0.30;;;15.20;43.40;;;;;;5073242;28;20469;-69
2022/01/02 10:37:35;;;;;;;0.30;0.30;;;15.20;46.40;;;;;;5073583;28;20827;-69
2022/01/02 10:40:01;;;;;;;0.30;0.30;;;15.10;47.20;;;;;;5073374;28;20491;-69
2022/01/02 10:42:27;;;;;;;0.30;0.30;;;15.00;46.50;;;;;;5073526;28;20169;-69
2022/01/02 10:44:53;;;;;;;0.33;0.33;;;15.00;45.50;;;;;;5073403;28;20663;-69
2022/01/02 10:47:21;;;;;;;0.30;0.30;;;14.90;44.50;;;;;;5073458;28;20399;-69
2022/01/02 10:49:47;;;;;;;0.30;0.30;;;14.80;50.60;;;;;;5072153;28;20651;-69
2022/01/02 10:52:29;;;;;;;0.30;0.30;;;14.80;50.20;;;;;;5073550;28;20436;-68
2022/01/02 10:54:58;;;;;;;0.30;0.30;;;14.80;46.20;;;;;;5073228;28;20221;-69
2022/01/02 10:57:24;;;;;;;0.40;0.40;;;14.80;48.60;;;;;;5073433;28;20409;-69
2022/01/02 10:59:55;;;;;;;0.30;0.30;;;14.60;47.30;;;;;;5073186;28;20791;-69
2022/01/02 11:02:22;;;;;;;0.30;0.30;;;14.50;45.70;;;;;;5073574;28;20403;-68
2022/01/02 11:05:04;;;;;;;0.30;0.30;;;14.50;46.40;;;;;;5073133;28;20427;-69
2022/01/02 11:07:45;;;;;;;0.30;0.30;;;14.50;46.50;;;;;;5073526;28;20408;-69
2022/01/02 11:10:13;;;;;;;0.30;0.30;;;14.60;45.00;;;;;;5073188;28;20408;-68
2022/01/02 11:12:41;;;;;;;0.30;0.30;;;14.60;44.50;;;;;;5073702;28;20500;-69
2022/01/02 11:15:09;;;;;;;0.30;0.30;;;14.60;44.60;;;;;;5073082;28;20462;-69
2022/01/02 11:17:35;;;;;;;0.40;0.40;;;14.60;46.30;;;;;;5073322;28;20400;-69
2022/01/02 11:20:09;;;;;;;0.60;0.60;;;14.60;45.80;;;;;;5072949;28;20788;-68
2022/01/02 11:22:52;;;;;;;0.30;0.30;;;14.70;46.90;;;;;;5073282;28;20410;-69
2022/01/02 11:25:23;;;;;;;0.30;0.30;;;14.80;45.10;;;;;;5073256;28;20428;-69
2022/01/02 11:27:58;;;;;;;0.30;0.30;;;14.90;45.90;;;;;;5073038;28;20389;-69
2022/01/02 11:30:30;;;;;;;0.30;0.30;;;15.00;44.50;;;;;;5073430;28;20798;-69
2022/01/02 11:33:09;;;;;;;0.30;0.30;;;15.30;44.10;;;;;;5073053;28;20404;-69
2022/01/02 11:35:37;;;;;;;0.40;0.40;;;15.50;45.10;;;;;;5072747;28;20823;-69
2022/01/02 11:38:04;;;;;;;0.30;0.30;;;15.60;45.90;;;;;;5072729;28;20761;-69
2022/01/02 11:40:52;;;;;;;0.40;0.40;;;15.60;44.80;;;;;;5076061;28;20453;-69
2022/01/02 11:43:36;;;;;;;0.30;0.30;;;15.60;47.20;;;;;;5076706;28;20415;-69
2022/01/02 11:46:20;;;;;;;0.30;0.30;;;15.50;45.00;;;;;;5076612;28;20419;-69
2022/01/02 11:49:14;;;;;;;0.40;0.40;;;15.40;45.10;;;;;;5076402;28;20482;-68
2022/01/02 11:54:32;;;;;;;0.30;0.30;;;15.30;47.00;;;;;;5076503;28;20470;-72
2022/01/02 11:57:01;;;;;;;0.30;0.30;;;15.40;47.00;;;;;;5076443;28;20395;-69
2022/01/02 11:59:39;;;;;;;0.30;0.30;;;15.50;47.30;;;;;;5076182;28;20426;-69
2022/01/02 12:02:25;;;;;;;0.30;0.30;;;15.60;50.00;;;;;;5076439;28;20911;-69
2022/01/02 12:10:16;;;;;;;0.40;0.40;;;15.40;47.50;;;;;;5076331;28;20398;-69
2022/01/02 12:13:00;;;;;;;0.30;0.30;;;15.40;47.20;;;;;;5076282;28;20977;-69
2022/01/02 12:15:34;;;;;;;0.30;0.30;;;15.30;51.30;;;;;;5076184;28;20469;-68
2022/01/02 12:18:07;;;;;;;0.30;0.30;;;15.40;48.80;;;;;;5076129;28;20408;-69
2022/01/02 12:20:50;;;;;;;0.30;0.30;;;15.40;46.80;;;;;;5076090;28;20404;-68
2022/01/02 12:23:34;;;;;;;1.27;1.03;;;15.60;47.50;;;;;;5076247;28;20402;-68
2022/01/02 12:26:10;;;;;;;0.50;0.50;;;15.80;49.00;;;;;;5075825;28;20475;-69
2022/01/02 12:28:40;;;;;;;0.40;0.40;;;15.80;49.80;;;;;;5075798;28;20458;-69
2022/01/02 12:31:08;;;;;;;0.40;0.40;;;15.70;50.00;;;;;;5075931;28;20408;-69
2022/01/02 12:33:35;;;;;;;0.30;0.30;;;15.60;49.10;;;;;;5075994;28;20400;-69
2022/01/02 12:36:09;;;;;;;0.33;0.33;;;15.50;49.60;;;;;;5075670;28;20514;-68
2022/01/02 12:38:53;;;;;;;0.30;0.30;;;15.50;51.80;;;;;;5075618;28;20498;-68
2022/01/02 12:41:23;;;;;;;0.30;0.30;;;15.40;50.80;;;;;;5075900;28;20402;-68
2022/01/02 12:43:58;;;;;;;0.30;0.30;;;15.40;51.90;;;;;;5075750;28;20404;-69
2022/01/02 12:46:37;;;;;;;0.30;0.30;;;15.30;49.10;;;;;;5075498;28;20470;-69
2022/01/02 12:49:04;;;;;;;0.30;0.30;;;15.30;48.70;;;;;;5075456;28;20411;-69
2022/01/02 12:51:32;;;;;;;0.30;0.30;;;15.20;49.30;;;;;;5075478;28;20400;-69
2022/01/02 12:54:07;;;;;;;0.30;0.30;;;15.20;52.70;;;;;;5075305;28;20451;-68
2022/01/02 12:56:34;;;;;;;0.50;0.50;;;15.10;51.50;;;;;;5075540;28;20392;-69
2022/01/02 12:59:31;;;;;;;0.73;0.73;;;15.10;50.30;;;;;;5075241;28;20424;-69
2022/01/02 13:01:56;;;;;;;0.40;0.40;;;15.20;49.80;;;;;;5075536;28;20488;-69
2022/01/02 13:04:24;;;;;;;0.30;0.30;;;15.30;49.60;;;;;;5075195;28;20508;-69
2022/01/02 13:06:54;;;;;;;0.40;0.40;;;15.40;49.70;;;;;;5075364;28;20627;-68
2022/01/02 13:09:24;;;;;;;0.30;0.30;;;15.50;50.10;;;;;;5075020;28;20404;-68
2022/01/02 13:11:50;;;;;;;0.40;0.40;;;15.40;50.00;;;;;;5075198;28;20415;-68
2022/01/02 13:14:40;;;;;;;0.30;0.30;;;15.40;51.40;;;;;;5074895;28;20546;-69